Terminal Aerodrome Forecast
Issued by NWS Midland/Odessa, TX

Home | Current Version | Previous Version | Text Only | Print | Product List | Glossary On
Versions: 1 2 3 4 5 6 7 8 9 10 11 12 13 14 15
000
FTUS44 KMAF 192324
TAFMAF
TAF
KMAF 192324Z 2000/2024 16012KT P6SM BKN100 BKN200
     FM200900 17012KT P6SM OVC015
      TEMPO 2012/2016 OVC005
     FM201700 17014G22KT P6SM BKN200=

USA.gov is the U.S. government's official web portal to all federal, state and local government web resources and services.